sensor_id;sensor_type;location;lat;lon;timestamp;P1;durP1;ratioP1;P2;durP2;ratioP2
23080;SDS011;72373;50.562;8.498;2024-02-21T00:01:52;15.30;;;5.60;;
23080;SDS011;72373;50.562;8.498;2024-02-21T00:04:18;16.42;;;5.25;;
23080;SDS011;72373;50.562;8.498;2024-02-21T00:06:44;19.85;;;5.20;;
23080;SDS011;72373;50.562;8.498;2024-02-21T00:09:10;18.05;;;5.65;;
23080;SDS011;72373;50.562;8.498;2024-02-21T00:11:35;15.75;;;5.50;;
23080;SDS011;72373;50.562;8.498;2024-02-21T00:14:01;13.02;;;5.53;;
23080;SDS011;72373;50.562;8.498;2024-02-21T00:16:26;15.77;;;5.53;;
23080;SDS011;72373;50.562;8.498;2024-02-21T00:18:52;14.68;;;5.10;;
23080;SDS011;72373;50.562;8.498;2024-02-21T00:21:17;17.70;;;5.53;;
23080;SDS011;72373;50.562;8.498;2024-02-21T00:23:44;14.02;;;5.57;;
23080;SDS011;72373;50.562;8.498;2024-02-21T00:26:14;12.75;;;4.93;;
23080;SDS011;72373;50.562;8.498;2024-02-21T00:28:39;15.00;;;5.38;;
23080;SDS011;72373;50.562;8.498;2024-02-21T00:31:05;14.55;;;5.78;;
23080;SDS011;72373;50.562;8.498;2024-02-21T00:33:30;16.00;;;5.95;;
23080;SDS011;72373;50.562;8.498;2024-02-21T00:35:56;14.40;;;5.53;;
23080;SDS011;72373;50.562;8.498;2024-02-21T00:38:21;17.20;;;5.90;;
23080;SDS011;72373;50.562;8.498;2024-02-21T00:40:47;12.52;;;6.25;;
23080;SDS011;72373;50.562;8.498;2024-02-21T00:43:12;15.88;;;5.25;;
23080;SDS011;72373;50.562;8.498;2024-02-21T00:45:38;15.82;;;7.05;;
23080;SDS011;72373;50.562;8.498;2024-02-21T00:48:04;13.77;;;6.43;;
23080;SDS011;72373;50.562;8.498;2024-02-21T00:50:29;19.38;;;6.47;;
23080;SDS011;72373;50.562;8.498;2024-02-21T00:52:55;12.30;;;6.45;;
23080;SDS011;72373;50.562;8.498;2024-02-21T00:55:21;12.90;;;5.60;;
23080;SDS011;72373;50.562;8.498;2024-02-21T00:57:46;11.23;;;6.05;;
23080;SDS011;72373;50.562;8.498;2024-02-21T01:00:12;18.77;;;6.60;;
23080;SDS011;72373;50.562;8.498;2024-02-21T01:02:38;13.10;;;6.10;;
23080;SDS011;72373;50.562;8.498;2024-02-21T01:05:03;11.10;;;5.72;;
23080;SDS011;72373;50.562;8.498;2024-02-21T01:07:29;14.23;;;5.30;;
23080;SDS011;72373;50.562;8.498;2024-02-21T01:09:54;12.73;;;5.70;;
23080;SDS011;72373;50.562;8.498;2024-02-21T01:12:20;14.55;;;5.90;;
23080;SDS011;72373;50.562;8.498;2024-02-21T01:14:46;11.77;;;6.03;;
23080;SDS011;72373;50.562;8.498;2024-02-21T01:17:11;16.63;;;5.80;;
23080;SDS011;72373;50.562;8.498;2024-02-21T01:19:37;10.30;;;5.30;;
23080;SDS011;72373;50.562;8.498;2024-02-21T01:22:03;13.45;;;5.18;;
23080;SDS011;72373;50.562;8.498;2024-02-21T01:24:29;12.52;;;5.63;;
23080;SDS011;72373;50.562;8.498;2024-02-21T01:26:55;13.88;;;5.63;;
23080;SDS011;72373;50.562;8.498;2024-02-21T01:29:20;15.95;;;6.03;;
23080;SDS011;72373;50.562;8.498;2024-02-21T01:31:46;10.85;;;5.43;;
23080;SDS011;72373;50.562;8.498;2024-02-21T01:34:12;15.75;;;5.60;;
23080;SDS011;72373;50.562;8.498;2024-02-21T01:36:38;10.15;;;5.32;;
23080;SDS011;72373;50.562;8.498;2024-02-21T01:39:03;14.07;;;5.32;;
23080;SDS011;72373;50.562;8.498;2024-02-21T01:41:29;10.77;;;5.35;;
23080;SDS011;72373;50.562;8.498;2024-02-21T01:43:56;10.50;;;4.90;;
23080;SDS011;72373;50.562;8.498;2024-02-21T01:46:22;10.85;;;5.20;;
23080;SDS011;72373;50.562;8.498;2024-02-21T01:48:48;14.07;;;5.25;;
23080;SDS011;72373;50.562;8.498;2024-02-21T01:51:13;10.98;;;5.50;;
23080;SDS011;72373;50.562;8.498;2024-02-21T01:53:42;14.88;;;5.57;;
23080;SDS011;72373;50.562;8.498;2024-02-21T01:56:08;12.05;;;5.57;;
23080;SDS011;72373;50.562;8.498;2024-02-21T01:58:35;11.95;;;5.03;;
23080;SDS011;72373;50.562;8.498;2024-02-21T02:01:02;14.32;;;5.68;;
23080;SDS011;72373;50.562;8.498;2024-02-21T02:03:28;13.57;;;5.50;;
23080;SDS011;72373;50.562;8.498;2024-02-21T02:05:55;9.75;;;5.00;;
23080;SDS011;72373;50.562;8.498;2024-02-21T02:08:20;13.13;;;5.53;;
23080;SDS011;72373;50.562;8.498;2024-02-21T02:10:49;15.38;;;5.28;;
23080;SDS011;72373;50.562;8.498;2024-02-21T02:13:15;12.55;;;6.20;;
23080;SDS011;72373;50.562;8.498;2024-02-21T02:15:41;8.38;;;4.82;;
23080;SDS011;72373;50.562;8.498;2024-02-21T02:18:11;14.05;;;5.50;;
23080;SDS011;72373;50.562;8.498;2024-02-21T02:20:37;12.50;;;5.53;;
23080;SDS011;72373;50.562;8.498;2024-02-21T02:23:06;13.30;;;5.53;;
23080;SDS011;72373;50.562;8.498;2024-02-21T02:25:36;11.13;;;4.90;;
23080;SDS011;72373;50.562;8.498;2024-02-21T02:28:03;11.10;;;4.63;;
23080;SDS011;72373;50.562;8.498;2024-02-21T02:30:33;9.65;;;4.88;;
23080;SDS011;72373;50.562;8.498;2024-02-21T02:33:01;9.40;;;4.35;;
23080;SDS011;72373;50.562;8.498;2024-02-21T02:35:30;14.00;;;5.40;;
23080;SDS011;72373;50.562;8.498;2024-02-21T02:37:57;14.85;;;6.35;;
23080;SDS011;72373;50.562;8.498;2024-02-21T02:40:22;11.43;;;4.60;;
23080;SDS011;72373;50.562;8.498;2024-02-21T02:42:48;14.00;;;5.68;;
23080;SDS011;72373;50.562;8.498;2024-02-21T02:45:15;14.30;;;5.53;;
23080;SDS011;72373;50.562;8.498;2024-02-21T02:47:41;15.48;;;5.65;;
23080;SDS011;72373;50.562;8.498;2024-02-21T02:50:07;13.43;;;5.25;;
23080;SDS011;72373;50.562;8.498;2024-02-21T02:52:32;13.00;;;5.28;;
23080;SDS011;72373;50.562;8.498;2024-02-21T02:54:58;15.95;;;5.38;;
23080;SDS011;72373;50.562;8.498;2024-02-21T02:57:24;12.63;;;5.10;;
23080;SDS011;72373;50.562;8.498;2024-02-21T02:59:50;15.38;;;5.50;;
23080;SDS011;72373;50.562;8.498;2024-02-21T03:02:16;11.93;;;5.28;;
23080;SDS011;72373;50.562;8.498;2024-02-21T03:04:42;12.73;;;5.15;;
23080;SDS011;72373;50.562;8.498;2024-02-21T03:07:08;11.40;;;5.10;;
23080;SDS011;72373;50.562;8.498;2024-02-21T03:09:34;10.75;;;4.75;;
23080;SDS011;72373;50.562;8.498;2024-02-21T03:11:59;15.63;;;5.35;;
23080;SDS011;72373;50.562;8.498;2024-02-21T03:14:30;14.27;;;5.03;;
23080;SDS011;72373;50.562;8.498;2024-02-21T03:16:56;11.32;;;4.97;;
23080;SDS011;72373;50.562;8.498;2024-02-21T03:19:23;14.07;;;5.07;;
23080;SDS011;72373;50.562;8.498;2024-02-21T03:21:49;13.40;;;4.63;;
23080;SDS011;72373;50.562;8.498;2024-02-21T03:24:18;7.70;;;4.68;;
23080;SDS011;72373;50.562;8.498;2024-02-21T03:26:44;8.88;;;4.70;;
23080;SDS011;72373;50.562;8.498;2024-02-21T03:29:10;13.57;;;5.03;;
23080;SDS011;72373;50.562;8.498;2024-02-21T03:31:36;11.50;;;4.35;;
23080;SDS011;72373;50.562;8.498;2024-02-21T03:34:02;9.10;;;4.30;;
23080;SDS011;72373;50.562;8.498;2024-02-21T03:36:28;10.77;;;5.15;;
23080;SDS011;72373;50.562;8.498;2024-02-21T03:38:54;13.60;;;4.60;;
23080;SDS011;72373;50.562;8.498;2024-02-21T03:41:20;11.73;;;4.55;;
23080;SDS011;72373;50.562;8.498;2024-02-21T03:43:46;13.55;;;4.43;;
23080;SDS011;72373;50.562;8.498;2024-02-21T03:46:12;12.27;;;4.35;;
23080;SDS011;72373;50.562;8.498;2024-02-21T03:48:37;15.52;;;5.78;;
23080;SDS011;72373;50.562;8.498;2024-02-21T03:51:03;9.73;;;4.18;;
23080;SDS011;72373;50.562;8.498;2024-02-21T03:53:28;12.40;;;4.43;;
23080;SDS011;72373;50.562;8.498;2024-02-21T03:55:54;10.50;;;4.55;;
23080;SDS011;72373;50.562;8.498;2024-02-21T03:58:20;9.13;;;4.35;;
23080;SDS011;72373;50.562;8.498;2024-02-21T04:00:46;13.55;;;4.88;;
23080;SDS011;72373;50.562;8.498;2024-02-21T04:03:12;12.82;;;4.20;;
23080;SDS011;72373;50.562;8.498;2024-02-21T04:05:37;8.45;;;4.32;;
23080;SDS011;72373;50.562;8.498;2024-02-21T04:08:04;13.90;;;5.60;;
23080;SDS011;72373;50.562;8.498;2024-02-21T04:10:30;15.77;;;4.97;;
23080;SDS011;72373;50.562;8.498;2024-02-21T04:12:55;8.77;;;4.10;;
23080;SDS011;72373;50.562;8.498;2024-02-21T04:15:21;11.43;;;4.38;;
23080;SDS011;72373;50.562;8.498;2024-02-21T04:17:46;9.52;;;4.93;;
23080;SDS011;72373;50.562;8.498;2024-02-21T04:20:14;10.32;;;4.38;;
23080;SDS011;72373;50.562;8.498;2024-02-21T04:22:40;10.75;;;4.55;;
23080;SDS011;72373;50.562;8.498;2024-02-21T04:25:09;10.73;;;4.70;;
23080;SDS011;72373;50.562;8.498;2024-02-21T04:27:35;12.20;;;4.82;;
23080;SDS011;72373;50.562;8.498;2024-02-21T04:30:01;10.77;;;5.15;;
23080;SDS011;72373;50.562;8.498;2024-02-21T04:32:27;10.40;;;4.22;;
23080;SDS011;72373;50.562;8.498;2024-02-21T04:34:53;15.10;;;4.90;;
23080;SDS011;72373;50.562;8.498;2024-02-21T04:37:19;13.25;;;4.55;;
23080;SDS011;72373;50.562;8.498;2024-02-21T04:39:45;12.52;;;4.53;;
23080;SDS011;72373;50.562;8.498;2024-02-21T04:42:11;14.32;;;4.97;;
23080;SDS011;72373;50.562;8.498;2024-02-21T04:44:37;7.20;;;4.10;;
23080;SDS011;72373;50.562;8.498;2024-02-21T04:47:03;16.50;;;5.63;;
23080;SDS011;72373;50.562;8.498;2024-02-21T04:49:29;8.40;;;4.65;;
23080;SDS011;72373;50.562;8.498;2024-02-21T04:51:54;17.85;;;4.78;;
23080;SDS011;72373;50.562;8.498;2024-02-21T04:54:20;10.80;;;3.97;;
23080;SDS011;72373;50.562;8.498;2024-02-21T04:56:45;10.60;;;4.03;;
23080;SDS011;72373;50.562;8.498;2024-02-21T04:59:11;9.88;;;3.83;;
23080;SDS011;72373;50.562;8.498;2024-02-21T05:01:36;12.18;;;4.45;;
23080;SDS011;72373;50.562;8.498;2024-02-21T05:04:02;14.57;;;4.40;;
23080;SDS011;72373;50.562;8.498;2024-02-21T05:06:28;12.70;;;4.38;;
23080;SDS011;72373;50.562;8.498;2024-02-21T05:08:53;10.02;;;3.83;;
23080;SDS011;72373;50.562;8.498;2024-02-21T05:11:20;12.13;;;4.38;;
23080;SDS011;72373;50.562;8.498;2024-02-21T05:13:46;11.70;;;4.80;;
23080;SDS011;72373;50.562;8.498;2024-02-21T05:16:12;11.13;;;4.45;;
23080;SDS011;72373;50.562;8.498;2024-02-21T05:18:37;12.88;;;4.68;;
23080;SDS011;72373;50.562;8.498;2024-02-21T05:21:03;8.65;;;3.92;;
23080;SDS011;72373;50.562;8.498;2024-02-21T05:23:29;12.13;;;4.20;;
23080;SDS011;72373;50.562;8.498;2024-02-21T05:25:55;11.35;;;4.28;;
23080;SDS011;72373;50.562;8.498;2024-02-21T05:28:20;10.25;;;4.30;;
23080;SDS011;72373;50.562;8.498;2024-02-21T05:30:46;11.02;;;4.32;;
23080;SDS011;72373;50.562;8.498;2024-02-21T05:33:11;8.88;;;3.55;;
23080;SDS011;72373;50.562;8.498;2024-02-21T05:35:37;8.13;;;3.78;;
23080;SDS011;72373;50.562;8.498;2024-02-21T05:38:03;12.60;;;4.75;;
23080;SDS011;72373;50.562;8.498;2024-02-21T05:40:31;11.48;;;3.85;;
23080;SDS011;72373;50.562;8.498;2024-02-21T05:42:57;9.90;;;3.53;;
23080;SDS011;72373;50.562;8.498;2024-02-21T05:45:22;11.52;;;3.90;;
23080;SDS011;72373;50.562;8.498;2024-02-21T05:47:48;12.13;;;4.03;;
23080;SDS011;72373;50.562;8.498;2024-02-21T05:50:15;12.02;;;4.28;;
23080;SDS011;72373;50.562;8.498;2024-02-21T05:52:40;9.15;;;3.58;;
23080;SDS011;72373;50.562;8.498;2024-02-21T05:55:06;12.05;;;4.05;;
23080;SDS011;72373;50.562;8.498;2024-02-21T05:57:33;9.60;;;3.90;;
23080;SDS011;72373;50.562;8.498;2024-02-21T05:59:59;10.70;;;4.05;;
23080;SDS011;72373;50.562;8.498;2024-02-21T06:02:25;10.05;;;4.15;;
23080;SDS011;72373;50.562;8.498;2024-02-21T06:04:50;11.68;;;4.72;;
23080;SDS011;72373;50.562;8.498;2024-02-21T06:07:16;8.73;;;3.65;;
23080;SDS011;72373;50.562;8.498;2024-02-21T06:09:41;10.45;;;4.15;;
23080;SDS011;72373;50.562;8.498;2024-02-21T06:12:07;10.55;;;3.92;;
23080;SDS011;72373;50.562;8.498;2024-02-21T06:14:32;9.32;;;4.00;;
23080;SDS011;72373;50.562;8.498;2024-02-21T06:16:58;13.40;;;4.25;;
23080;SDS011;72373;50.562;8.498;2024-02-21T06:19:23;10.55;;;4.22;;
23080;SDS011;72373;50.562;8.498;2024-02-21T06:21:49;11.25;;;4.22;;
23080;SDS011;72373;50.562;8.498;2024-02-21T06:24:14;15.18;;;4.47;;
23080;SDS011;72373;50.562;8.498;2024-02-21T06:26:40;8.60;;;4.20;;
23080;SDS011;72373;50.562;8.498;2024-02-21T06:29:05;12.35;;;4.47;;
23080;SDS011;72373;50.562;8.498;2024-02-21T06:31:31;10.70;;;3.58;;
23080;SDS011;72373;50.562;8.498;2024-02-21T06:33:57;9.63;;;4.50;;
23080;SDS011;72373;50.562;8.498;2024-02-21T06:36:22;9.73;;;4.25;;
23080;SDS011;72373;50.562;8.498;2024-02-21T06:38:48;7.43;;;4.00;;
23080;SDS011;72373;50.562;8.498;2024-02-21T06:41:20;15.00;;;4.45;;
23080;SDS011;72373;50.562;8.498;2024-02-21T06:43:46;9.90;;;4.43;;
23080;SDS011;72373;50.562;8.498;2024-02-21T06:46:12;9.25;;;4.72;;
23080;SDS011;72373;50.562;8.498;2024-02-21T06:48:50;7.53;;;4.10;;
23080;SDS011;72373;50.562;8.498;2024-02-21T06:51:16;9.80;;;3.90;;
23080;SDS011;72373;50.562;8.498;2024-02-21T06:53:41;6.82;;;3.78;;
23080;SDS011;72373;50.562;8.498;2024-02-21T06:56:08;9.98;;;4.13;;
23080;SDS011;72373;50.562;8.498;2024-02-21T06:58:35;8.10;;;4.55;;
23080;SDS011;72373;50.562;8.498;2024-02-21T07:01:01;12.80;;;4.60;;
23080;SDS011;72373;50.562;8.498;2024-02-21T07:03:26;10.68;;;4.15;;
23080;SDS011;72373;50.562;8.498;2024-02-21T07:05:52;10.80;;;3.95;;
23080;SDS011;72373;50.562;8.498;2024-02-21T07:08:18;7.60;;;4.53;;
23080;SDS011;72373;50.562;8.498;2024-02-21T07:10:43;13.40;;;4.72;;
23080;SDS011;72373;50.562;8.498;2024-02-21T07:13:09;12.93;;;4.45;;
23080;SDS011;72373;50.562;8.498;2024-02-21T07:15:34;10.13;;;4.30;;
23080;SDS011;72373;50.562;8.498;2024-02-21T07:18:01;10.77;;;4.30;;
23080;SDS011;72373;50.562;8.498;2024-02-21T07:20:26;11.82;;;4.43;;
23080;SDS011;72373;50.562;8.498;2024-02-21T07:22:52;12.77;;;4.00;;
23080;SDS011;72373;50.562;8.498;2024-02-21T07:25:18;11.35;;;4.10;;
23080;SDS011;72373;50.562;8.498;2024-02-21T07:27:44;10.25;;;3.78;;
23080;SDS011;72373;50.562;8.498;2024-02-21T07:30:09;7.95;;;4.28;;
23080;SDS011;72373;50.562;8.498;2024-02-21T07:32:35;15.93;;;4.55;;
23080;SDS011;72373;50.562;8.498;2024-02-21T07:35:01;7.90;;;3.97;;
23080;SDS011;72373;50.562;8.498;2024-02-21T07:37:26;6.78;;;4.10;;
23080;SDS011;72373;50.562;8.498;2024-02-21T07:39:52;14.05;;;4.50;;
23080;SDS011;72373;50.562;8.498;2024-02-21T07:42:17;11.95;;;3.90;;
23080;SDS011;72373;50.562;8.498;2024-02-21T07:44:43;8.23;;;3.92;;
23080;SDS011;72373;50.562;8.498;2024-02-21T07:47:09;8.82;;;4.20;;
23080;SDS011;72373;50.562;8.498;2024-02-21T07:49:40;12.88;;;3.75;;
23080;SDS011;72373;50.562;8.498;2024-02-21T07:52:09;9.05;;;4.18;;
23080;SDS011;72373;50.562;8.498;2024-02-21T07:54:35;9.00;;;3.80;;
23080;SDS011;72373;50.562;8.498;2024-02-21T07:57:00;10.20;;;3.80;;
23080;SDS011;72373;50.562;8.498;2024-02-21T07:59:26;7.30;;;3.95;;
23080;SDS011;72373;50.562;8.498;2024-02-21T08:01:51;14.05;;;3.83;;
23080;SDS011;72373;50.562;8.498;2024-02-21T08:04:20;10.75;;;3.85;;
23080;SDS011;72373;50.562;8.498;2024-02-21T08:06:46;12.77;;;4.05;;
23080;SDS011;72373;50.562;8.498;2024-02-21T08:09:18;10.23;;;3.83;;
23080;SDS011;72373;50.562;8.498;2024-02-21T08:11:44;12.32;;;3.88;;
23080;SDS011;72373;50.562;8.498;2024-02-21T08:14:09;12.40;;;3.83;;
23080;SDS011;72373;50.562;8.498;2024-02-21T08:16:35;10.32;;;4.72;;
23080;SDS011;72373;50.562;8.498;2024-02-21T08:19:00;7.50;;;3.75;;
23080;SDS011;72373;50.562;8.498;2024-02-21T08:21:28;9.48;;;4.20;;
23080;SDS011;72373;50.562;8.498;2024-02-21T08:23:54;9.00;;;4.15;;
23080;SDS011;72373;50.562;8.498;2024-02-21T08:26:20;11.23;;;3.83;;
23080;SDS011;72373;50.562;8.498;2024-02-21T08:28:45;9.13;;;3.85;;
23080;SDS011;72373;50.562;8.498;2024-02-21T08:31:17;8.27;;;4.10;;
23080;SDS011;72373;50.562;8.498;2024-02-21T08:33:48;7.68;;;3.67;;
23080;SDS011;72373;50.562;8.498;2024-02-21T08:36:19;12.23;;;3.50;;
23080;SDS011;72373;50.562;8.498;2024-02-21T08:38:45;8.30;;;4.22;;
23080;SDS011;72373;50.562;8.498;2024-02-21T08:41:11;14.90;;;4.82;;
23080;SDS011;72373;50.562;8.498;2024-02-21T08:43:37;9.60;;;4.00;;
23080;SDS011;72373;50.562;8.498;2024-02-21T08:46:03;11.88;;;3.88;;
23080;SDS011;72373;50.562;8.498;2024-02-21T08:48:29;8.50;;;4.07;;
23080;SDS011;72373;50.562;8.498;2024-02-21T08:50:54;9.18;;;3.88;;
23080;SDS011;72373;50.562;8.498;2024-02-21T08:53:20;11.23;;;4.25;;
23080;SDS011;72373;50.562;8.498;2024-02-21T08:55:45;10.07;;;4.03;;
23080;SDS011;72373;50.562;8.498;2024-02-21T08:58:11;9.65;;;3.90;;
23080;SDS011;72373;50.562;8.498;2024-02-21T09:00:37;9.32;;;3.83;;
23080;SDS011;72373;50.562;8.498;2024-02-21T09:03:02;11.05;;;4.00;;
23080;SDS011;72373;50.562;8.498;2024-02-21T09:05:28;8.75;;;4.00;;
23080;SDS011;72373;50.562;8.498;2024-02-21T09:07:54;11.52;;;3.80;;
23080;SDS011;72373;50.562;8.498;2024-02-21T09:10:20;10.07;;;4.20;;
23080;SDS011;72373;50.562;8.498;2024-02-21T09:12:46;9.20;;;3.85;;
23080;SDS011;72373;50.562;8.498;2024-02-21T09:15:12;7.85;;;3.72;;
23080;SDS011;72373;50.562;8.498;2024-02-21T09:17:38;13.73;;;4.05;;
23080;SDS011;72373;50.562;8.498;2024-02-21T09:20:04;12.38;;;4.30;;
23080;SDS011;72373;50.562;8.498;2024-02-21T09:22:31;13.23;;;4.45;;
23080;SDS011;72373;50.562;8.498;2024-02-21T09:24:59;9.80;;;3.92;;
23080;SDS011;72373;50.562;8.498;2024-02-21T09:27:25;9.07;;;4.22;;
23080;SDS011;72373;50.562;8.498;2024-02-21T09:29:51;8.90;;;3.95;;
23080;SDS011;72373;50.562;8.498;2024-02-21T09:32:16;10.80;;;3.97;;
23080;SDS011;72373;50.562;8.498;2024-02-21T09:34:44;12.05;;;4.15;;
23080;SDS011;72373;50.562;8.498;2024-02-21T09:37:10;9.82;;;5.18;;
23080;SDS011;72373;50.562;8.498;2024-02-21T09:39:36;8.18;;;3.60;;
23080;SDS011;72373;50.562;8.498;2024-02-21T09:42:05;9.68;;;4.10;;
23080;SDS011;72373;50.562;8.498;2024-02-21T09:44:38;9.75;;;4.35;;
23080;SDS011;72373;50.562;8.498;2024-02-21T09:47:12;9.20;;;3.72;;
23080;SDS011;72373;50.562;8.498;2024-02-21T09:49:43;8.90;;;3.55;;
23080;SDS011;72373;50.562;8.498;2024-02-21T09:52:09;12.05;;;4.70;;
23080;SDS011;72373;50.562;8.498;2024-02-21T09:54:38;8.45;;;3.80;;
23080;SDS011;72373;50.562;8.498;2024-02-21T09:57:07;10.95;;;3.88;;
23080;SDS011;72373;50.562;8.498;2024-02-21T09:59:33;8.85;;;4.43;;
23080;SDS011;72373;50.562;8.498;2024-02-21T10:01:59;8.10;;;3.58;;
23080;SDS011;72373;50.562;8.498;2024-02-21T10:04:25;6.65;;;3.22;;
23080;SDS011;72373;50.562;8.498;2024-02-21T10:06:51;13.93;;;3.92;;
23080;SDS011;72373;50.562;8.498;2024-02-21T10:09:22;7.07;;;3.53;;
23080;SDS011;72373;50.562;8.498;2024-02-21T10:11:48;13.05;;;4.30;;
23080;SDS011;72373;50.562;8.498;2024-02-21T10:14:15;8.50;;;4.00;;
23080;SDS011;72373;50.562;8.498;2024-02-21T10:16:42;8.35;;;3.28;;
23080;SDS011;72373;50.562;8.498;2024-02-21T10:19:15;10.10;;;4.10;;
23080;SDS011;72373;50.562;8.498;2024-02-21T10:21:42;7.03;;;3.38;;
23080;SDS011;72373;50.562;8.498;2024-02-21T10:24:08;11.13;;;3.92;;
23080;SDS011;72373;50.562;8.498;2024-02-21T10:26:35;7.53;;;3.13;;
23080;SDS011;72373;50.562;8.498;2024-02-21T10:29:02;11.18;;;3.72;;
23080;SDS011;72373;50.562;8.498;2024-02-21T10:31:27;8.07;;;3.65;;
23080;SDS011;72373;50.562;8.498;2024-02-21T10:34:02;12.48;;;4.15;;
23080;SDS011;72373;50.562;8.498;2024-02-21T10:36:28;9.63;;;3.83;;
23080;SDS011;72373;50.562;8.498;2024-02-21T10:38:54;8.90;;;3.47;;
23080;SDS011;72373;50.562;8.498;2024-02-21T10:41:20;9.07;;;3.60;;
23080;SDS011;72373;50.562;8.498;2024-02-21T10:43:48;5.47;;;3.05;;
23080;SDS011;72373;50.562;8.498;2024-02-21T10:46:19;8.15;;;3.38;;
23080;SDS011;72373;50.562;8.498;2024-02-21T10:48:46;7.00;;;3.05;;
23080;SDS011;72373;50.562;8.498;2024-02-21T10:51:16;9.52;;;3.80;;
23080;SDS011;72373;50.562;8.498;2024-02-21T10:54:00;8.15;;;2.83;;
23080;SDS011;72373;50.562;8.498;2024-02-21T10:56:35;6.18;;;3.05;;
23080;SDS011;72373;50.562;8.498;2024-02-21T10:59:06;5.43;;;2.67;;
23080;SDS011;72373;50.562;8.498;2024-02-21T11:01:32;9.93;;;3.42;;
23080;SDS011;72373;50.562;8.498;2024-02-21T11:04:04;9.07;;;3.17;;
23080;SDS011;72373;50.562;8.498;2024-02-21T11:06:31;6.10;;;3.10;;
23080;SDS011;72373;50.562;8.498;2024-02-21T11:09:05;7.15;;;3.35;;
23080;SDS011;72373;50.562;8.498;2024-02-21T11:11:35;10.65;;;3.22;;
23080;SDS011;72373;50.562;8.498;2024-02-21T11:16:57;9.88;;;3.45;;
23080;SDS011;72373;50.562;8.498;2024-02-21T11:19:27;9.57;;;3.00;;
23080;SDS011;72373;50.562;8.498;2024-02-21T11:21:54;10.27;;;3.20;;
23080;SDS011;72373;50.562;8.498;2024-02-21T11:24:28;7.93;;;2.97;;
23080;SDS011;72373;50.562;8.498;2024-02-21T11:26:55;6.13;;;2.72;;
23080;SDS011;72373;50.562;8.498;2024-02-21T11:29:24;7.22;;;3.15;;
23080;SDS011;72373;50.562;8.498;2024-02-21T11:31:51;13.55;;;3.13;;
23080;SDS011;72373;50.562;8.498;2024-02-21T11:34:17;7.18;;;3.20;;
23080;SDS011;72373;50.562;8.498;2024-02-21T11:36:53;8.93;;;3.45;;
23080;SDS011;72373;50.562;8.498;2024-02-21T11:41:59;7.70;;;3.47;;
23080;SDS011;72373;50.562;8.498;2024-02-21T11:44:35;8.02;;;3.03;;
23080;SDS011;72373;50.562;8.498;2024-02-21T11:47:02;10.27;;;3.30;;
23080;SDS011;72373;50.562;8.498;2024-02-21T11:49:29;6.75;;;3.20;;
23080;SDS011;72373;50.562;8.498;2024-02-21T11:52:01;7.07;;;2.88;;
23080;SDS011;72373;50.562;8.498;2024-02-21T11:54:29;7.10;;;2.70;;
23080;SDS011;72373;50.562;8.498;2024-02-21T11:56:55;8.73;;;3.03;;
23080;SDS011;72373;50.562;8.498;2024-02-21T11:59:21;8.93;;;3.13;;
23080;SDS011;72373;50.562;8.498;2024-02-21T12:01:48;6.32;;;2.67;;
23080;SDS011;72373;50.562;8.498;2024-02-21T12:04:15;8.68;;;2.80;;
23080;SDS011;72373;50.562;8.498;2024-02-21T12:06:42;6.95;;;2.38;;
23080;SDS011;72373;50.562;8.498;2024-02-21T12:09:09;8.00;;;2.65;;
23080;SDS011;72373;50.562;8.498;2024-02-21T12:11:38;6.25;;;2.92;;
23080;SDS011;72373;50.562;8.498;2024-02-21T12:14:04;9.70;;;3.03;;
23080;SDS011;72373;50.562;8.498;2024-02-21T12:16:33;5.85;;;2.65;;
23080;SDS011;72373;50.562;8.498;2024-02-21T12:18:59;8.98;;;3.08;;
23080;SDS011;72373;50.562;8.498;2024-02-21T12:21:25;8.13;;;3.05;;
23080;SDS011;72373;50.562;8.498;2024-02-21T12:24:20;7.32;;;2.70;;
23080;SDS011;72373;50.562;8.498;2024-02-21T12:26:48;7.95;;;3.15;;
23080;SDS011;72373;50.562;8.498;2024-02-21T12:29:14;7.65;;;3.38;;
23080;SDS011;72373;50.562;8.498;2024-02-21T12:31:39;10.68;;;3.90;;
23080;SDS011;72373;50.562;8.498;2024-02-21T12:34:05;6.97;;;4.00;;
23080;SDS011;72373;50.562;8.498;2024-02-21T12:36:31;11.98;;;3.40;;
23080;SDS011;72373;50.562;8.498;2024-02-21T12:38:58;9.15;;;3.03;;
23080;SDS011;72373;50.562;8.498;2024-02-21T12:41:24;9.13;;;3.10;;
23080;SDS011;72373;50.562;8.498;2024-02-21T12:43:51;8.45;;;3.65;;
23080;SDS011;72373;50.562;8.498;2024-02-21T12:46:17;10.43;;;3.80;;
23080;SDS011;72373;50.562;8.498;2024-02-21T12:48:43;8.02;;;3.42;;
23080;SDS011;72373;50.562;8.498;2024-02-21T12:51:08;10.23;;;3.70;;
23080;SDS011;72373;50.562;8.498;2024-02-21T12:53:34;11.40;;;3.95;;
23080;SDS011;72373;50.562;8.498;2024-02-21T12:55:59;9.98;;;3.25;;
23080;SDS011;72373;50.562;8.498;2024-02-21T12:58:25;9.10;;;3.88;;
23080;SDS011;72373;50.562;8.498;2024-02-21T13:00:51;9.25;;;4.20;;
23080;SDS011;72373;50.562;8.498;2024-02-21T13:03:16;8.13;;;3.90;;
23080;SDS011;72373;50.562;8.498;2024-02-21T13:05:42;8.40;;;4.45;;
23080;SDS011;72373;50.562;8.498;2024-02-21T13:08:08;10.93;;;5.00;;
23080;SDS011;72373;50.562;8.498;2024-02-21T13:10:34;13.32;;;5.07;;
23080;SDS011;72373;50.562;8.498;2024-02-21T13:13:02;10.93;;;4.50;;
23080;SDS011;72373;50.562;8.498;2024-02-21T13:15:28;9.02;;;4.90;;
23080;SDS011;72373;50.562;8.498;2024-02-21T13:17:54;11.32;;;5.13;;
23080;SDS011;72373;50.562;8.498;2024-02-21T13:20:21;10.82;;;3.90;;
23080;SDS011;72373;50.562;8.498;2024-02-21T13:22:47;12.43;;;4.68;;
23080;SDS011;72373;50.562;8.498;2024-02-21T13:25:13;12.38;;;5.15;;
23080;SDS011;72373;50.562;8.498;2024-02-21T13:27:43;13.52;;;5.68;;
23080;SDS011;72373;50.562;8.498;2024-02-21T13:30:09;13.57;;;4.85;;
23080;SDS011;72373;50.562;8.498;2024-02-21T13:32:35;12.77;;;5.13;;
23080;SDS011;72373;50.562;8.498;2024-02-21T13:35:01;8.35;;;5.00;;
23080;SDS011;72373;50.562;8.498;2024-02-21T13:37:28;12.00;;;4.97;;
23080;SDS011;72373;50.562;8.498;2024-02-21T13:39:53;9.40;;;4.90;;
23080;SDS011;72373;50.562;8.498;2024-02-21T13:42:19;8.93;;;4.53;;
23080;SDS011;72373;50.562;8.498;2024-02-21T13:44:45;6.82;;;4.05;;
23080;SDS011;72373;50.562;8.498;2024-02-21T13:47:12;11.05;;;4.30;;
23080;SDS011;72373;50.562;8.498;2024-02-21T13:49:39;6.95;;;4.65;;
23080;SDS011;72373;50.562;8.498;2024-02-21T13:52:04;8.57;;;4.25;;
23080;SDS011;72373;50.562;8.498;2024-02-21T13:54:30;9.23;;;3.92;;
23080;SDS011;72373;50.562;8.498;2024-02-21T13:56:55;9.82;;;4.32;;
23080;SDS011;72373;50.562;8.498;2024-02-21T13:59:21;8.55;;;3.45;;
23080;SDS011;72373;50.562;8.498;2024-02-21T14:01:47;9.75;;;4.10;;
23080;SDS011;72373;50.562;8.498;2024-02-21T14:04:12;8.43;;;3.30;;
23080;SDS011;72373;50.562;8.498;2024-02-21T14:06:38;12.15;;;3.53;;
23080;SDS011;72373;50.562;8.498;2024-02-21T14:09:08;9.48;;;4.10;;
23080;SDS011;72373;50.562;8.498;2024-02-21T14:11:34;6.50;;;3.15;;
23080;SDS011;72373;50.562;8.498;2024-02-21T14:14:00;6.72;;;3.33;;
23080;SDS011;72373;50.562;8.498;2024-02-21T14:16:25;6.28;;;3.03;;
23080;SDS011;72373;50.562;8.498;2024-02-21T14:18:51;6.95;;;3.30;;
23080;SDS011;72373;50.562;8.498;2024-02-21T14:21:16;6.65;;;3.08;;
23080;SDS011;72373;50.562;8.498;2024-02-21T14:23:42;9.52;;;3.15;;
23080;SDS011;72373;50.562;8.498;2024-02-21T14:26:08;7.90;;;3.10;;
23080;SDS011;72373;50.562;8.498;2024-02-21T14:28:34;5.72;;;3.28;;
23080;SDS011;72373;50.562;8.498;2024-02-21T14:30:59;5.47;;;3.17;;
23080;SDS011;72373;50.562;8.498;2024-02-21T14:33:26;5.18;;;2.90;;
23080;SDS011;72373;50.562;8.498;2024-02-21T14:35:52;7.55;;;3.50;;
23080;SDS011;72373;50.562;8.498;2024-02-21T14:38:18;8.63;;;3.40;;
23080;SDS011;72373;50.562;8.498;2024-02-21T14:40:44;6.93;;;3.38;;
23080;SDS011;72373;50.562;8.498;2024-02-21T14:43:10;7.10;;;3.90;;